Time;durP1;ratioP1;P1;durP2;ratioP2;P2;SDS_P1;SDS_P2;PMS_P1;PMS_P2;Temp;Humidity;BMP_temperature;BMP_pressure;BME280_temperature;BME280_humidity;BME280_pressure;Samples;Min_cycle;Max_cycle;Signal;HPM_P1;HPM_P2
2021/05/10 00:01:32;;;;;;;4.05;1.85;;;;;;;9.79;60.75;99944.34;4229840;33;34463;-90
2021/05/10 00:04:05;;;;;;;2.12;1.40;;;;;;;10.07;60.18;99947.41;4241310;33;34030;-90
2021/05/10 00:06:38;;;;;;;3.78;2.15;;;;;;;9.84;60.62;99941.97;4235612;33;34435;-90
2021/05/10 00:09:10;;;;;;;4.43;1.75;;;;;;;9.69;61.57;99941.03;4245018;33;34503;-91
2021/05/10 00:11:43;;;;;;;5.10;1.87;;;;;;;9.52;62.06;99946.50;4232218;33;33577;-91
2021/05/10 00:14:16;;;;;;;3.97;1.73;;;;;;;9.67;61.43;99943.91;4237934;33;33120;-90
2021/05/10 00:16:48;;;;;;;6.57;1.85;;;;;;;9.95;60.48;99947.97;4210139;33;35791;-90
2021/05/10 00:19:21;;;;;;;4.05;1.75;;;;;;;9.46;61.95;99941.81;4232761;33;34298;-90
2021/05/10 00:21:53;;;;;;;3.40;1.73;;;;;;;9.61;61.66;99947.31;4232101;33;35670;-90
2021/05/10 00:24:26;;;;;;;3.62;1.85;;;;;;;9.75;60.88;99944.91;4231284;33;33319;-91
2021/05/10 00:27:15;;;;;;;3.60;1.60;;;;;;;9.45;61.76;99939.31;4230625;33;34799;-90
2021/05/10 00:29:48;;;;;;;3.03;1.80;;;;;;;9.33;62.35;99950.47;4231425;33;34559;-90
2021/05/10 00:32:20;;;;;;;3.47;1.73;;;;;;;9.61;61.30;99946.47;4232114;33;35806;-90
2021/05/10 00:34:53;;;;;;;2.35;1.80;;;;;;;9.56;61.38;99944.28;4231711;33;34137;-90
2021/05/10 00:37:25;;;;;;;3.50;2.00;;;;;;;9.59;61.29;99946.63;4231692;33;33921;-90
2021/05/10 00:39:57;;;;;;;2.17;1.60;;;;;;;9.65;60.80;99943.22;4232445;33;33694;-90
2021/05/10 00:42:30;;;;;;;2.33;1.60;;;;;;;9.49;61.60;99940.59;4220927;33;35917;-90
2021/05/10 00:45:04;;;;;;;4.18;1.92;;;;;;;9.42;61.68;99942.34;4231878;33;34482;-91
2021/05/10 00:47:37;;;;;;;4.05;1.67;;;;;;;9.39;62.03;99929.22;4239776;33;34584;-90
2021/05/10 00:50:11;;;;;;;4.18;1.90;;;;;;;9.40;61.76;99942.53;4243856;33;33672;-90
2021/05/10 00:52:43;;;;;;;3.28;1.50;;;;;;;9.38;61.96;99938.31;4220975;33;34487;-90
2021/05/10 00:55:16;;;;;;;4.55;1.80;;;;;;;9.58;61.13;99939.59;4231146;33;34144;-90
2021/05/10 00:57:53;;;;;;;1.50;1.40;;;;;;;9.49;61.57;99935.22;4232080;33;34828;-90
2021/05/10 01:00:26;;;;;;;2.12;1.65;;;;;;;9.21;62.22;99927.59;4232250;33;33812;-90
2021/05/10 01:03:08;;;;;;;2.55;1.98;;;;;;;8.89;63.63;99932.06;4221313;33;36408;-91
2021/05/10 01:05:41;;;;;;;2.92;1.75;;;;;;;9.16;62.98;99921.84;4232400;33;33170;-91
2021/05/10 01:08:13;;;;;;;2.37;1.87;;;;;;;9.23;62.34;99928.25;4232685;33;33658;-90
2021/05/10 01:10:46;;;;;;;5.05;1.90;;;;;;;9.18;63.03;99914.44;4230395;33;33665;-90
2021/05/10 01:13:19;;;;;;;2.80;1.80;;;;;;;9.37;62.17;99921.28;4231200;33;34238;-90
2021/05/10 01:15:53;;;;;;;3.87;1.67;;;;;;;9.11;62.76;99919.69;4217336;33;34071;-90
2021/05/10 01:18:25;;;;;;;5.32;1.90;;;;;;;9.03;63.52;99919.72;4233221;33;33299;-90
2021/05/10 01:20:59;;;;;;;5.50;2.20;;;;;;;9.18;62.70;99914.44;4234222;33;34791;-91
2021/05/10 01:23:32;;;;;;;2.20;1.75;;;;;;;9.11;63.02;99908.06;4243333;33;35456;-90
2021/05/10 01:26:05;;;;;;;4.45;2.50;;;;;;;8.99;63.47;99904.91;4233490;33;32863;-90
2021/05/10 01:28:37;;;;;;;2.47;1.73;;;;;;;9.16;62.72;99895.75;4242534;33;34956;-90
2021/05/10 01:31:15;;;;;;;3.65;1.77;;;;;;;9.18;62.62;99895.56;4233990;33;34699;-90
2021/05/10 01:33:47;;;;;;;7.18;2.03;;;;;;;9.19;62.46;99902.63;4233453;33;34300;-90
2021/05/10 01:36:20;;;;;;;3.58;1.98;;;;;;;9.00;63.16;99903.91;4233754;33;34000;-90
2021/05/10 01:38:53;;;;;;;3.12;2.00;;;;;;;9.25;62.54;99901.97;4244066;33;34340;-91
2021/05/10 01:41:26;;;;;;;2.92;2.03;;;;;;;9.19;62.52;99903.50;4244510;33;33688;-89
2021/05/10 01:43:58;;;;;;;2.37;1.42;;;;;;;9.43;62.00;99906.25;4232595;33;34363;-92
2021/05/10 01:46:31;;;;;;;1.87;1.50;;;;;;;9.21;62.43;99905.16;4233934;33;33159;-90
2021/05/10 01:49:03;;;;;;;5.20;1.95;;;;;;;9.04;62.98;99901.69;4232017;33;33653;-90
2021/05/10 01:51:36;;;;;;;3.20;2.00;;;;;;;9.23;62.38;99893.19;4221367;33;33705;-90
2021/05/10 01:54:08;;;;;;;5.10;1.73;;;;;;;9.51;61.16;99890.84;4245222;33;33825;-91
2021/05/10 01:56:42;;;;;;;2.62;1.83;;;;;;;9.11;62.19;99894.59;4233858;33;33087;-91
2021/05/10 01:59:14;;;;;;;4.12;1.70;;;;;;;9.16;62.29;99886.81;4233144;33;34283;-90
2021/05/10 02:01:47;;;;;;;2.15;1.48;;;;;;;9.21;61.92;99887.13;4244996;33;33709;-90
2021/05/10 02:04:22;;;;;;;10.45;2.03;;;;;;;8.97;62.61;99886.22;4243447;33;33775;-91
2021/05/10 02:07:02;;;;;;;3.00;1.87;;;;;;;8.89;62.79;99894.34;4232742;33;34293;-90
2021/05/10 02:09:34;;;;;;;3.45;1.85;;;;;;;9.09;62.03;99883.97;4233415;33;34374;-90
2021/05/10 02:12:07;;;;;;;2.87;1.77;;;;;;;9.11;61.70;99884.63;4245948;33;33776;-91
2021/05/10 02:14:39;;;;;;;3.12;1.92;;;;;;;9.02;61.90;99883.81;4244229;33;33675;-91
2021/05/10 02:17:12;;;;;;;2.50;1.60;;;;;;;8.74;62.70;99896.03;4233198;33;33977;-90
2021/05/10 02:19:44;;;;;;;4.47;1.85;;;;;;;8.87;62.63;99888.25;4233710;33;34129;-91
2021/05/10 02:22:17;;;;;;;2.60;2.05;;;;;;;8.84;62.75;99891.28;4233624;33;33822;-90
2021/05/10 02:24:49;;;;;;;3.25;1.77;;;;;;;8.74;63.40;99893.34;4222053;33;34313;-91
2021/05/10 02:27:22;;;;;;;2.70;1.70;;;;;;;9.17;61.68;99886.63;4222445;33;34085;-90
2021/05/10 02:29:54;;;;;;;4.28;1.70;;;;;;;9.02;62.27;99897.28;4243706;33;34547;-90
2021/05/10 02:32:27;;;;;;;3.90;1.98;;;;;;;8.69;63.30;99901.09;4221352;33;33799;-91
2021/05/10 02:35:00;;;;;;;3.85;2.03;;;;;;;8.64;63.86;99897.06;4244466;33;34207;-91
2021/05/10 02:37:33;;;;;;;2.75;2.05;;;;;;;8.67;63.81;99895.91;4244282;33;33716;-91
2021/05/10 02:40:07;;;;;;;5.07;2.40;;;;;;;8.64;63.79;99894.37;4243709;33;34460;-91
2021/05/10 02:42:41;;;;;;;2.58;1.87;;;;;;;8.57;64.20;99892.53;4244424;33;33771;-91
2021/05/10 02:45:15;;;;;;;2.05;1.70;;;;;;;8.89;63.15;99897.03;4231125;33;34351;-90
2021/05/10 02:47:49;;;;;;;7.82;1.98;;;;;;;8.64;63.77;99904.31;4233298;33;33807;-90
2021/05/10 02:50:23;;;;;;;3.53;2.30;;;;;;;8.69;63.59;99906.50;4231972;33;33146;-91
2021/05/10 02:53:17;;;;;;;3.95;2.12;;;;;;;8.52;63.81;99902.97;4239670;33;35223;-90
2021/05/10 02:55:49;;;;;;;3.33;2.35;;;;;;;8.54;64.26;99904.50;4244367;33;35767;-90
2021/05/10 02:58:22;;;;;;;3.15;1.92;;;;;;;8.53;64.47;99910.03;4229783;33;33343;-90
2021/05/10 03:00:54;;;;;;;9.32;2.70;;;;;;;8.50;65.09;99915.78;4223827;33;34491;-90
2021/05/10 03:03:27;;;;;;;2.85;2.30;;;;;;;8.70;64.27;99908.16;4244600;33;34577;-90
2021/05/10 03:05:59;;;;;;;10.07;2.47;;;;;;;8.45;65.46;99917.13;4231505;33;34894;-91
2021/05/10 03:08:32;;;;;;;3.35;2.40;;;;;;;8.39;65.98;99911.56;4242721;33;33407;-93
2021/05/10 03:11:05;;;;;;;3.35;2.15;;;;;;;8.51;65.72;99904.84;4229704;33;35622;-95
2021/05/10 03:20:48;;;;;;;3.12;1.98;;;;;;;8.84;64.09;99904.78;4174432;34;34943;-95
2021/05/10 03:23:22;;;;;;;2.78;2.00;;;;;;;8.81;64.43;99907.81;4217247;34;34064;-94
2021/05/10 03:25:54;;;;;;;3.97;2.53;;;;;;;8.85;64.30;99914.56;4229220;33;34919;-90
2021/05/10 03:28:27;;;;;;;7.43;2.28;;;;;;;8.71;65.07;99907.16;4231879;33;33748;-89
2021/05/10 03:30:59;;;;;;;3.17;2.55;;;;;;;9.10;64.03;99898.28;4232062;33;33400;-89
2021/05/10 03:33:32;;;;;;;3.33;2.40;;;;;;;8.93;64.73;99898.34;4230088;33;34188;-94
2021/05/10 03:36:05;;;;;;;5.15;2.42;;;;;;;9.12;64.73;99901.69;4218205;33;34859;-90
2021/05/10 03:38:38;;;;;;;5.05;2.60;;;;;;;9.09;64.83;99910.13;4229771;33;33652;-89
2021/05/10 03:41:10;;;;;;;4.30;2.78;;;;;;;9.15;64.90;99901.31;4217379;34;33151;-95
2021/05/10 03:43:46;;;;;;;3.30;2.30;;;;;;;9.28;64.43;99909.69;4207459;34;32781;-94
2021/05/10 03:46:18;;;;;;;5.10;2.35;;;;;;;9.44;63.98;99905.25;4206382;34;34720;-89
2021/05/10 03:48:51;;;;;;;3.25;2.20;;;;;;;9.48;63.83;99906.56;4225773;33;35344;-94
2021/05/10 03:51:24;;;;;;;5.40;2.42;;;;;;;9.38;64.48;99908.66;4230344;33;35073;-94
2021/05/10 03:54:36;;;;;;;4.15;3.08;;;;;;;9.65;63.89;99902.75;3728204;34;37110;-89
2021/05/10 03:57:09;;;;;;;5.82;3.42;;;;;;;9.69;64.08;99900.56;4210831;34;33936;-96
2021/05/10 04:00:17;;;;;;;4.00;2.83;;;;;;;9.74;64.32;99897.31;4219620;33;35859;-95
2021/05/10 04:02:50;;;;;;;7.47;3.17;;;;;;;9.88;64.15;99904.66;4242238;33;34218;-95
2021/05/10 04:11:06;;;;;;;5.78;2.47;;;;;;;10.56;61.76;99913.75;4246382;33;33343;-96
2021/05/10 04:13:49;;;;;;;4.97;2.92;;;;;;;10.42;61.26;99915.41;4246362;33;33170;-96
2021/05/10 04:16:21;;;;;;;5.90;3.40;;;;;;;10.88;59.80;99908.22;4231697;33;33832;-94
2021/05/10 04:22:27;;;;;;;3.70;2.08;;;;;;;11.32;58.79;99899.25;4225987;33;36564;-94
2021/05/10 04:25:02;;;;;;;4.00;2.42;;;;;;;11.75;58.19;99904.78;4208420;33;32199;-90
2021/05/10 04:27:34;;;;;;;7.85;2.83;;;;;;;11.84;57.89;99905.47;4230830;33;35003;-95
2021/05/10 04:30:08;;;;;;;3.75;2.40;;;;;;;11.72;57.38;99905.16;4221317;33;33663;-90
2021/05/10 04:32:41;;;;;;;5.62;3.03;;;;;;;11.94;57.53;99910.63;4219182;33;35962;-91
2021/05/10 04:35:14;;;;;;;5.75;2.47;;;;;;;11.97;57.44;99913.78;4221393;33;33301;-94
2021/05/10 04:37:51;;;;;;;5.78;2.42;;;;;;;12.42;56.42;99913.56;4209108;33;34541;-90
2021/05/10 04:43:42;;;;;;;3.67;2.58;;;;;;;12.64;54.93;99905.41;4229391;33;34359;-90
2021/05/10 04:46:15;;;;;;;5.65;2.67;;;;;;;13.00;54.67;99912.56;4233133;33;33349;-89
2021/05/10 04:48:47;;;;;;;3.60;2.17;;;;;;;12.99;54.26;99905.44;4245830;33;33742;-95
2021/05/10 04:55:15;;;;;;;10.68;2.45;;;;;;;13.36;53.00;99911.53;3866548;33;35561;-90
2021/05/10 04:57:47;;;;;;;5.70;2.50;;;;;;;13.39;52.88;99906.53;4230985;33;34197;-93
2021/05/10 05:00:22;;;;;;;3.37;2.33;;;;;;;13.46;53.03;99901.13;4248641;33;33656;-88
2021/05/10 05:02:55;;;;;;;3.97;1.90;;;;;;;13.63;53.08;99906.22;4223729;33;34367;-94
2021/05/10 05:05:33;;;;;;;8.05;2.28;;;;;;;13.47;52.29;99913.66;4227563;33;32741;-94
2021/05/10 05:08:30;;;;;;;5.32;2.10;;;;;;;13.50;52.25;99910.56;4220969;33;37229;-96
2021/05/10 05:11:05;;;;;;;9.27;2.00;;;;;;;13.83;50.95;99901.69;4230258;33;33254;-89
2021/05/10 05:13:45;;;;;;;6.65;2.25;;;;;;;14.32;50.44;99915.16;4230583;33;33819;-94
2021/05/10 05:16:17;;;;;;;6.12;2.03;;;;;;;14.05;50.10;99915.09;4217879;33;33660;-88
2021/05/10 05:18:50;;;;;;;6.87;1.98;;;;;;;14.47;49.93;99919.31;4231750;33;33263;-89
2021/05/10 05:21:22;;;;;;;14.13;2.20;;;;;;;14.30;49.40;99926.22;4231573;33;33792;-90
2021/05/10 05:24:03;;;;;;;4.20;1.87;;;;;;;14.37;48.77;99920.78;4228964;33;33584;-96
2021/05/10 05:26:35;;;;;;;5.40;2.15;;;;;;;14.71;49.38;99929.81;4229972;33;33757;-88
2021/05/10 05:29:11;;;;;;;5.80;2.08;;;;;;;14.86;48.72;99925.00;4231458;33;33967;-95
2021/05/10 05:31:46;;;;;;;5.78;2.58;;;;;;;14.57;47.93;99932.50;4239858;33;33634;-89
2021/05/10 05:34:21;;;;;;;5.90;2.30;;;;;;;14.52;47.60;99931.47;4237282;33;33216;-89
2021/05/10 05:36:55;;;;;;;3.00;1.77;;;;;;;14.77;47.96;99926.25;4237494;33;33817;-94
2021/05/10 05:39:28;;;;;;;5.62;1.80;;;;;;;14.76;47.78;99927.28;4236259;33;34040;-89
2021/05/10 05:42:00;;;;;;;2.55;1.98;;;;;;;15.04;47.92;99935.22;4238279;33;34658;-90
2021/05/10 05:48:07;;;;;;;3.12;1.98;;;;;;;15.18;46.52;99930.59;4228673;33;32088;-90
2021/05/10 05:50:50;;;;;;;2.62;2.00;;;;;;;15.15;47.36;99922.88;4231251;33;34974;-95
2021/05/10 05:53:41;;;;;;;4.65;2.33;;;;;;;15.15;46.67;99920.97;4227982;33;33632;-89
2021/05/10 05:56:14;;;;;;;6.15;2.17;;;;;;;15.24;47.44;99923.44;4229482;33;34274;-90
2021/05/10 05:58:48;;;;;;;5.70;2.28;;;;;;;15.41;46.26;99924.66;4229504;33;33760;-90
2021/05/10 06:01:25;;;;;;;7.35;2.33;;;;;;;15.15;46.89;99920.16;4231430;33;33137;-96
2021/05/10 06:03:59;;;;;;;8.75;2.60;;;;;;;15.20;47.19;99927.66;4231867;33;33647;-90
2021/05/10 06:06:45;;;;;;;5.95;1.92;;;;;;;15.54;46.88;99902.81;4241335;33;33472;-96
2021/05/10 06:09:40;;;;;;;3.33;2.03;;;;;;;15.32;46.83;99909.63;4229977;33;32846;-89
2021/05/10 06:12:15;;;;;;;4.78;2.08;;;;;;;15.64;46.13;99910.56;4234163;33;33052;-89
2021/05/10 06:14:57;;;;;;;5.25;1.90;;;;;;;15.80;45.96;99908.41;4230008;33;33881;-96
2021/05/10 06:17:35;;;;;;;4.03;2.28;;;;;;;15.96;45.73;99909.75;4234027;33;37061;-89
2021/05/10 06:20:12;;;;;;;3.65;2.47;;;;;;;15.88;45.99;99902.69;4230299;33;33951;-95
2021/05/10 06:22:49;;;;;;;5.35;1.73;;;;;;;15.98;46.15;99908.50;4231441;33;34914;-96
2021/05/10 06:25:26;;;;;;;5.18;1.75;;;;;;;16.14;45.73;99903.59;4231917;33;33904;-90
2021/05/10 06:28:34;;;;;;;4.25;2.03;;;;;;;16.06;44.47;99910.13;4230651;33;35723;-90
2021/05/10 06:31:08;;;;;;;4.75;2.53;;;;;;;16.17;45.51;99909.44;4241991;33;34804;-90
2021/05/10 06:33:44;;;;;;;6.47;2.20;;;;;;;16.45;44.54;99908.16;4242808;33;33440;-91
2021/05/10 06:39:46;;;;;;;4.97;2.37;;;;;;;16.75;44.56;99911.06;4258893;33;37439;-96
2021/05/10 06:42:45;;;;;;;3.70;2.00;;;;;;;16.86;44.62;99903.22;4248912;33;33493;-88
2021/05/10 06:45:24;;;;;;;4.12;1.90;;;;;;;17.03;43.81;99904.31;4244674;33;34149;-95
2021/05/10 06:48:00;;;;;;;7.68;1.95;;;;;;;16.84;43.70;99911.63;4232794;33;34976;-96
2021/05/10 06:50:38;;;;;;;3.37;1.48;;;;;;;17.43;43.15;99903.88;4257069;33;33693;-93
2021/05/10 06:53:18;;;;;;;6.05;1.90;;;;;;;17.45;42.53;99920.88;4247014;33;33950;-90
2021/05/10 06:55:53;;;;;;;6.15;1.75;;;;;;;17.36;42.98;99916.75;4246190;33;33822;-90
2021/05/10 06:58:29;;;;;;;5.15;1.62;;;;;;;17.95;41.65;99910.81;4268125;33;33752;-93
2021/05/10 07:01:15;;;;;;;2.85;1.40;;;;;;;17.86;41.27;99907.53;4247624;33;34551;-91
2021/05/10 07:04:14;;;;;;;3.72;1.80;;;;;;;18.28;41.20;99909.50;4228646;33;32930;-90
2021/05/10 07:06:58;;;;;;;5.03;1.70;;;;;;;18.15;41.68;99900.41;4236970;33;32424;-90
2021/05/10 07:09:34;;;;;;;7.35;2.00;;;;;;;18.48;40.90;99903.69;4243544;33;33660;-90
2021/05/10 07:12:44;;;;;;;3.90;1.85;;;;;;;18.62;40.32;99898.81;4243190;33;35224;-94
2021/05/10 07:15:36;;;;;;;3.03;1.40;;;;;;;18.66;39.89;99892.63;4243924;33;34211;-90
2021/05/10 07:18:13;;;;;;;4.85;1.60;;;;;;;18.53;40.13;99890.97;4254949;33;32715;-93
2021/05/10 07:21:02;;;;;;;4.47;1.60;;;;;;;18.67;40.08;99888.00;4254703;33;34594;-90
2021/05/10 07:23:36;;;;;;;;;;;;;;;18.75;39.63;99884.91;4241666;33;33758;-90
2021/05/10 07:26:40;;;;;;;2.55;1.40;;;;;;;19.18;39.32;99885.63;4228990;33;33190;-90
2021/05/10 07:29:13;;;;;;;6.45;1.50;;;;;;;19.31;39.05;99898.22;4229892;33;33231;-91
2021/05/10 07:32:06;;;;;;;5.22;1.40;;;;;;;19.41;38.88;99895.69;4241317;33;33350;-95
2021/05/10 07:34:39;;;;;;;3.22;1.70;;;;;;;19.26;38.93;99898.12;4242434;33;35508;-91
2021/05/10 07:37:11;;;;;;;4.57;1.60;;;;;;;19.47;38.93;99882.94;4219497;33;34574;-95
2021/05/10 07:39:47;;;;;;;5.82;1.48;;;;;;;19.45;38.17;99891.41;4249978;33;33958;-95
2021/05/10 07:42:23;;;;;;;4.90;1.50;;;;;;;19.80;37.81;99882.25;4252427;33;33267;-96
2021/05/10 07:45:03;;;;;;;9.05;1.60;;;;;;;20.04;38.04;99884.88;4249857;33;34634;-90
2021/05/10 07:47:54;;;;;;;8.27;2.03;;;;;;;20.23;36.79;99880.84;4236654;33;33741;-95
2021/05/10 07:50:42;;;;;;;4.40;1.60;;;;;;;20.16;37.47;99876.59;4240822;33;32806;-95
2021/05/10 07:53:31;;;;;;;4.85;1.52;;;;;;;20.64;36.56;99861.47;4214855;34;34887;-95
2021/05/10 07:56:06;;;;;;;4.03;1.40;;;;;;;20.63;35.53;99868.06;4194658;33;34042;-91
2021/05/10 07:58:43;;;;;;;5.75;1.40;;;;;;;20.72;36.41;99866.56;4229323;33;33536;-92
2021/05/10 08:01:21;;;;;;;2.42;1.20;;;;;;;20.98;36.09;99876.00;4230990;33;33351;-91
2021/05/10 08:03:56;;;;;;;4.32;1.48;;;;;;;20.99;35.78;99866.69;4240893;33;33773;-92
2021/05/10 08:06:37;;;;;;;6.32;1.50;;;;;;;20.95;35.30;99857.28;4219192;33;34695;-96
2021/05/10 08:09:20;;;;;;;1.83;1.40;;;;;;;21.22;35.60;99853.78;4217777;33;35502;-96
2021/05/10 08:11:54;;;;;;;6.20;1.30;;;;;;;21.45;35.16;99851.88;4230001;33;33048;-90
2021/05/10 08:14:57;;;;;;;4.03;1.62;;;;;;;21.72;34.61;99845.59;4230565;33;33274;-94
2021/05/10 08:17:43;;;;;;;2.62;1.20;;;;;;;21.49;34.26;99853.84;4230067;33;33713;-91
2021/05/10 08:20:41;;;;;;;4.78;1.42;;;;;;;21.89;33.52;99848.22;4230963;33;33566;-91
2021/05/10 08:24:04;;;;;;;3.03;1.20;;;;;;;21.88;33.69;99850.16;4220249;33;33819;-96
2021/05/10 08:27:26;;;;;;;6.65;1.45;;;;;;;21.84;34.21;99847.13;4229486;33;34042;-92
2021/05/10 08:29:59;;;;;;;5.50;1.52;;;;;;;22.15;34.21;99830.88;4219426;33;36072;-91
2021/05/10 08:32:57;;;;;;;4.07;1.70;;;;;;;22.37;34.02;99828.06;4235870;33;33228;-92
2021/05/10 08:36:37;;;;;;;5.12;1.45;;;;;;;22.73;32.79;99828.31;4212777;33;34343;-93
2021/05/10 08:39:14;;;;;;;4.90;1.42;;;;;;;23.11;32.13;99827.44;4208354;33;35635;-95
2021/05/10 08:42:22;;;;;;;10.35;1.75;;;;;;;22.60;31.33;99823.28;4219233;33;34192;-92
2021/05/10 08:45:39;;;;;;;2.60;1.35;;;;;;;22.66;32.11;99822.19;4219726;33;36283;-92
2021/05/10 08:48:30;;;;;;;8.63;1.20;;;;;;;23.18;32.35;99819.78;4211641;34;31822;-94
2021/05/10 08:51:05;;;;;;;;;;;;;;;23.26;32.10;99819.22;4214125;34;34403;-91
2021/05/10 08:53:49;;;;;;;2.53;1.55;;;;;;;23.71;30.61;99814.97;4214595;34;33752;-95
2021/05/10 08:56:27;;;;;;;8.13;1.85;;;;;;;23.71;31.29;99801.19;4213971;34;32705;-90
2021/05/10 08:59:19;;;;;;;5.30;1.27;;;;;;;23.87;33.00;99798.47;4212725;34;31841;-96
2021/05/10 09:02:20;;;;;;;3.45;1.42;;;;;;;24.07;30.30;99795.72;4224379;33;33392;-96
2021/05/10 09:05:13;;;;;;;3.60;1.65;;;;;;;23.80;29.74;99788.50;4215274;34;36176;-95
2021/05/10 09:08:05;;;;;;;6.85;1.42;;;;;;;23.74;31.04;99792.34;4216085;34;33963;-91
2021/05/10 09:11:22;;;;;;;6.97;1.50;;;;;;;24.22;30.78;99794.03;4216381;34;33141;-91
2021/05/10 09:14:07;;;;;;;5.35;1.75;;;;;;;24.70;30.45;99789.06;4215887;33;33969;-96
2021/05/10 09:16:57;;;;;;;3.15;1.42;;;;;;;24.72;28.82;99786.81;4206146;34;35174;-91
2021/05/10 09:19:49;;;;;;;3.62;1.20;;;;;;;24.71;29.21;99782.41;4215377;34;34837;-91
2021/05/10 09:22:24;;;;;;;7.55;1.37;;;;;;;25.11;28.93;99777.84;4207408;33;35140;-91
2021/05/10 09:25:02;;;;;;;5.75;1.70;;;;;;;24.53;28.84;99782.97;4229361;33;33748;-95
2021/05/10 09:27:38;;;;;;;4.07;2.15;;;;;;;25.38;28.45;99782.16;4220030;34;34880;-91
2021/05/10 09:30:18;;;;;;;4.18;1.60;;;;;;;25.07;29.13;99773.97;4229777;33;34815;-88
2021/05/10 09:32:56;;;;;;;5.07;1.85;;;;;;;25.59;29.44;99769.03;4227028;33;32962;-94
2021/05/10 09:35:41;;;;;;;9.73;1.98;;;;;;;25.81;27.43;99765.84;4225079;33;34529;-96
2021/05/10 09:38:25;;;;;;;6.62;1.75;;;;;;;25.27;27.84;99767.53;4213737;34;34453;-96
2021/05/10 09:41:08;;;;;;;2.35;1.27;;;;;;;25.62;28.32;99768.47;4215149;33;33381;-90
2021/05/10 09:43:57;;;;;;;4.35;1.70;;;;;;;25.89;28.20;99772.69;4201509;34;33817;-91
2021/05/10 09:46:39;;;;;;;7.20;1.70;;;;;;;26.08;28.42;99759.00;4217228;33;34713;-88
2021/05/10 09:49:13;;;;;;;5.22;1.70;;;;;;;25.97;26.89;99746.31;4241652;33;33635;-90
2021/05/10 09:52:18;;;;;;;4.78;1.65;;;;;;;25.81;28.48;99742.84;4230614;33;33335;-95
2021/05/10 09:54:59;;;;;;;7.12;1.65;;;;;;;26.06;26.69;99745.47;4238112;33;33189;-96
2021/05/10 09:57:32;;;;;;;5.95;1.87;;;;;;;25.85;27.61;99741.16;4241063;33;32683;-95
2021/05/10 10:00:30;;;;;;;5.80;1.77;;;;;;;25.76;27.49;99735.41;4219030;33;35352;-94
2021/05/10 10:03:04;;;;;;;4.82;1.42;;;;;;;26.11;27.13;99736.28;4229674;33;34396;-89
2021/05/10 10:05:41;;;;;;;8.40;1.95;;;;;;;25.94;26.98;99725.56;4229573;33;33154;-96
2021/05/10 10:08:21;;;;;;;6.68;1.50;;;;;;;25.94;26.56;99720.03;4230075;33;33722;-94
2021/05/10 10:10:56;;;;;;;4.10;1.83;;;;;;;26.05;27.35;99723.59;4218385;33;32873;-92
2021/05/10 10:13:33;;;;;;;10.25;1.25;;;;;;;26.24;26.66;99720.91;4227805;33;33649;-94
2021/05/10 10:16:07;;;;;;;4.90;1.40;;;;;;;26.78;25.77;99718.94;4228579;33;33806;-91
2021/05/10 10:18:41;;;;;;;3.30;1.08;;;;;;;27.20;26.00;99733.94;4229061;33;34006;-91
2021/05/10 10:21:16;;;;;;;3.40;1.37;;;;;;;27.09;27.28;99727.69;4232688;33;339976;-96
2021/05/10 10:23:58;;;;;;;4.65;1.48;;;;;;;27.47;25.84;99721.38;4230137;33;33839;-91
2021/05/10 10:26:35;;;;;;;7.45;1.60;;;;;;;27.53;24.99;99711.84;4239874;33;32918;-95
2021/05/10 10:29:15;;;;;;;3.83;1.40;;;;;;;27.36;25.70;99717.91;4241001;33;33544;-96
2021/05/10 10:31:56;;;;;;;2.05;1.42;;;;;;;27.62;24.26;99723.06;4228390;33;33889;-89
2021/05/10 10:34:40;;;;;;;4.68;1.62;;;;;;;27.90;25.72;99712.91;4229021;33;33480;-94
2021/05/10 10:37:17;;;;;;;11.02;1.67;;;;;;;27.96;24.58;99719.19;4229473;33;33118;-92
2021/05/10 10:40:03;;;;;;;6.37;1.45;;;;;;;28.51;24.08;99708.19;4223069;33;36809;-89
2021/05/10 10:42:39;;;;;;;4.20;1.70;;;;;;;29.51;25.99;99689.97;4242506;33;33782;-95
2021/05/10 10:45:25;;;;;;;4.47;1.45;;;;;;;29.10;23.23;99699.22;4238663;33;33808;-91
2021/05/10 10:48:14;;;;;;;5.53;1.48;;;;;;;29.21;22.73;99695.09;4229053;33;34915;-96
2021/05/10 10:51:00;;;;;;;5.35;1.40;;;;;;;29.61;22.59;99691.66;4239633;33;33707;-95
2021/05/10 10:54:20;;;;;;;4.10;1.65;;;;;;;29.71;21.69;99691.41;4166938;33;34918;-90
2021/05/10 10:57:03;;;;;;;4.20;1.77;;;;;;;29.73;23.19;99689.13;4240888;33;33875;-95
2021/05/10 10:59:42;;;;;;;4.72;1.20;;;;;;;30.07;22.19;99676.56;4232616;33;34212;-90
2021/05/10 11:02:23;;;;;;;8.45;1.65;;;;;;;29.90;21.03;99685.66;4237428;33;34669;-91
2021/05/10 11:05:12;;;;;;;2.78;1.20;;;;;;;30.62;21.65;99671.75;4239288;33;33802;-90
2021/05/10 11:08:20;;;;;;;5.00;1.65;;;;;;;30.55;20.90;99682.56;4236083;33;35351;-92
2021/05/10 11:10:55;;;;;;;7.28;1.77;;;;;;;30.67;22.16;99679.16;4239583;33;34132;-89
2021/05/10 11:13:39;;;;;;;3.65;1.42;;;;;;;30.34;20.52;99677.53;4239358;33;33248;-96
2021/05/10 11:16:16;;;;;;;5.87;1.33;;;;;;;30.34;20.39;99671.13;4227521;33;33668;-94
2021/05/10 11:18:52;;;;;;;2.30;1.30;;;;;;;30.49;19.14;99672.69;4240411;33;34703;-95
2021/05/10 11:21:31;;;;;;;3.37;1.73;;;;;;;30.20;19.53;99662.88;4238106;33;35301;-89
2021/05/10 11:24:09;;;;;;;5.12;1.35;;;;;;;30.39;20.30;99666.25;4225728;33;34432;-92
2021/05/10 11:26:55;;;;;;;3.92;1.20;;;;;;;30.61;19.21;99667.31;4229751;33;33763;-94
2021/05/10 11:29:34;;;;;;;6.55;1.35;;;;;;;30.29;19.41;99661.78;4238274;33;33512;-94
2021/05/10 11:32:10;;;;;;;2.70;1.50;;;;;;;30.30;19.37;99662.59;4241460;33;33202;-88
2021/05/10 11:34:43;;;;;;;5.85;1.27;;;;;;;30.88;20.29;99662.62;4234224;33;34598;-89
2021/05/10 11:37:34;;;;;;;2.55;1.10;;;;;;;30.97;20.61;99664.28;4232145;33;34718;-92
2021/05/10 11:40:15;;;;;;;4.30;1.20;;;;;;;31.41;20.55;99658.75;4243035;33;36420;-90
2021/05/10 11:42:52;;;;;;;4.12;1.58;;;;;;;31.01;20.13;99663.66;4242420;33;34067;-96
2021/05/10 11:45:47;;;;;;;6.87;1.75;;;;;;;30.91;20.05;99660.00;4230942;33;33515;-95
2021/05/10 11:48:41;;;;;;;4.03;1.65;;;;;;;31.00;19.09;99659.22;4230214;33;35163;-89
2021/05/10 11:51:53;;;;;;;5.10;1.25;;;;;;;31.11;19.51;99653.00;4229596;33;34764;-92
2021/05/10 11:54:57;;;;;;;4.62;1.92;;;;;;;30.42;20.69;99648.91;4244102;33;33599;-92
2021/05/10 11:57:41;;;;;;;4.40;1.10;;;;;;;30.83;20.22;99657.22;4341396;28;34539;-87
2021/05/10 12:04:41;;;;;;;4.57;1.40;;;;;;;31.44;20.18;99644.13;4211347;33;35799;-96
2021/05/10 12:07:38;;;;;;;5.35;1.30;;;;;;;30.97;20.58;99641.97;4227347;33;33881;-96
2021/05/10 12:10:32;;;;;;;2.78;1.55;;;;;;;31.18;21.19;99651.69;4313262;28;32969;-94
2021/05/10 12:13:26;;;;;;;5.20;1.83;;;;;;;30.74;20.28;99638.47;4281126;28;33022;-96
2021/05/10 12:16:27;;;;;;;;;;;;;;;30.63;20.37;99634.38;4217449;33;33363;-92
2021/05/10 12:19:07;;;;;;;6.75;1.48;;;;;;;31.34;19.97;99638.88;4218741;33;33588;-96
2021/05/10 12:21:48;;;;;;;8.75;2.40;;;;;;;30.92;21.68;99636.53;4229344;33;34024;-92
2021/05/10 12:24:25;;;;;;;6.60;1.50;;;;;;;31.29;21.27;99631.50;4219042;33;33406;-96
2021/05/10 12:27:27;;;;;;;3.17;1.40;;;;;;;31.04;21.76;99632.31;4245181;33;33742;-96
2021/05/10 12:30:03;;;;;;;1.70;1.15;;;;;;;30.92;20.65;99619.81;4205209;33;32731;-96
2021/05/10 12:32:43;;;;;;;20.52;3.03;;;;;;;31.53;20.63;99616.22;4215250;33;34686;-96
2021/05/10 12:36:04;;;;;;;4.43;1.52;;;;;;;31.75;20.72;99609.59;4220348;33;34527;-95
2021/05/10 12:38:49;;;;;;;7.85;1.70;;;;;;;31.65;20.36;99605.19;4258160;33;33698;-93
2021/05/10 12:41:46;;;;;;;7.57;1.58;;;;;;;31.64;20.33;99602.75;4248259;33;33087;-96
2021/05/10 12:44:27;;;;;;;4.07;1.48;;;;;;;31.08;20.71;99603.44;4247404;33;34139;-96
2021/05/10 12:47:08;;;;;;;4.60;1.52;;;;;;;31.83;20.77;99611.56;4247683;33;35439;-96
2021/05/10 12:50:32;;;;;;;5.32;1.40;;;;;;;31.49;20.31;99601.25;4222776;33;34369;-96
2021/05/10 12:53:17;;;;;;;4.47;1.35;;;;;;;31.24;20.73;99591.75;4246577;33;34230;-92
2021/05/10 12:56:17;;;;;;;13.05;3.12;;;;;;;31.50;21.08;99589.75;4255185;33;33673;-96
2021/05/10 12:59:08;;;;;;;5.80;2.25;;;;;;;31.60;20.60;99588.59;4250476;33;34341;-96
2021/05/10 13:01:56;;;;;;;5.07;1.70;;;;;;;31.76;20.27;99574.94;4244343;33;34774;-96
2021/05/10 13:04:44;;;;;;;4.93;1.30;;;;;;;31.27;20.60;99583.53;4245763;33;32345;-95
2021/05/10 13:07:19;;;;;;;3.37;1.58;;;;;;;31.48;21.32;99586.50;4233188;33;34005;-91
2021/05/10 13:09:51;;;;;;;4.25;1.42;;;;;;;31.81;21.06;99579.50;4237744;33;33743;-91
2021/05/10 13:12:28;;;;;;;2.08;1.15;;;;;;;32.06;20.85;99582.56;4246895;33;33770;-91
2021/05/10 13:15:03;;;;;;;4.03;1.23;;;;;;;32.17;20.68;99576.28;4248548;33;32146;-91